Time;durP1;ratioP1;P1;durP2;ratioP2;P2;SDS_P1;SDS_P2;PMS_P1;PMS_P2;Temp;Humidity;BMP_temperature;BMP_pressure;BME280_temperature;BME280_humidity;BME280_pressure;Samples;Min_cycle;Max_cycle;Signal;HPM_P1;HPM_P2
2021/12/05 00:23:46;;;;;;;39.22;36.97;;;;;;;20.10;46.46;99599.19;4941294;29;20039;-81
2021/12/05 00:26:16;;;;;;;37.97;35.75;;;;;;;20.12;46.58;99587.09;4941653;29;20463;-81
2021/12/05 00:47:03;;;;;;;37.90;35.70;;;;;;;20.09;46.04;99581.13;4956962;29;20369;-81
2021/12/05 01:15:56;;;;;;;36.30;34.40;;;;;;;20.02;45.50;99582.81;4956369;29;20032;-82
2021/12/05 01:18:22;;;;;;;36.13;34.15;;;;;;;20.01;45.69;99579.28;4938906;29;20039;-81
2021/12/05 01:21:07;;;;;;;;;;;;;;;;;;;;;
2021/12/05 01:23:44;;;;;;;37.90;35.72;;;;;;;20.00;45.42;99585.88;4956654;29;20046;-81
2021/12/05 01:26:17;;;;;;;38.55;36.35;;;;;;;20.00;45.34;99585.06;4939343;29;20122;-82
2021/12/05 01:36:13;;;;;;;36.40;34.15;;;;;;;19.98;45.44;99601.88;4954847;29;20126;-81
2021/12/05 02:00:26;;;;;;;36.25;34.42;;;;;;;19.93;45.18;99604.00;4955109;29;20071;-81
2021/12/05 02:29:36;;;;;;;35.70;33.80;;;;;;;19.88;44.72;99574.84;4955995;29;20046;-84
2021/12/05 02:32:59;;;;;;;38.10;35.90;;;;;;;19.84;44.88;99569.22;4941182;29;20074;-81
2021/12/05 02:44:12;;;;;;;35.92;34.05;;;;;;;19.83;44.88;99569.56;4971458;29;20043;-81
2021/12/05 02:46:05;;;;;;;36.85;34.85;;;;;;;19.83;44.49;99573.13;4954487;29;20070;-80
2021/12/05 02:48:35;;;;;;;36.33;34.47;;;;;;;19.82;44.61;99571.50;4962567;29;20028;-82
2021/12/05 02:51:05;;;;;;;38.33;36.50;;;;;;;19.82;44.69;99576.97;4944964;28;20051;-81
2021/12/05 02:53:54;;;;;;;36.00;34.20;;;;;;;19.82;44.62;99567.97;4958389;29;20032;-81
2021/12/05 02:56:24;;;;;;;36.03;34.13;;;;;;;19.81;44.56;99574.59;4959187;29;20031;-81
2021/12/05 02:58:52;;;;;;;35.85;34.05;;;;;;;19.81;44.77;99569.91;4959177;29;20059;-82
2021/12/05 03:01:30;;;;;;;34.45;32.75;;;;;;;19.80;44.39;99573.75;4958032;28;20039;-81
2021/12/05 03:03:57;;;;;;;35.37;33.33;;;;;;;19.80;44.42;99571.03;4957467;29;20170;-81
2021/12/05 03:06:26;;;;;;;36.10;34.17;;;;;;;19.80;44.29;99570.22;4957906;29;20094;-81
2021/12/05 03:09:14;;;;;;;36.72;34.72;;;;;;;19.79;44.70;99565.91;4957243;28;20035;-81
2021/12/05 03:11:41;;;;;;;35.30;33.47;;;;;;;19.78;44.77;99567.84;4941546;29;20028;-81
2021/12/05 03:14:07;;;;;;;34.72;33.03;;;;;;;19.78;44.60;99567.00;4957366;28;20031;-81
2021/12/05 03:16:37;;;;;;;35.38;33.47;;;;;;;19.78;44.26;99572.50;4941373;29;20054;-81
2021/12/05 03:19:06;;;;;;;35.42;33.53;;;;;;;19.79;44.57;99571.38;4941105;29;20074;-81
2021/12/05 03:21:33;;;;;;;35.42;33.55;;;;;;;19.77;44.24;99566.22;4941568;29;20042;-82
2021/12/05 03:23:59;;;;;;;35.15;33.35;;;;;;;19.77;44.51;99568.16;4941673;29;20027;-82
2021/12/05 03:26:29;;;;;;;35.08;33.28;;;;;;;19.78;44.44;99564.28;4941857;29;20093;-82
2021/12/05 03:28:56;;;;;;;36.60;34.67;;;;;;;19.77;44.37;99562.69;4941326;29;20031;-82
2021/12/05 03:31:24;;;;;;;36.65;34.65;;;;;;;19.76;44.31;99555.59;4941160;29;20046;-81
2021/12/05 03:33:50;;;;;;;36.97;35.07;;;;;;;19.76;44.31;99558.34;4941223;29;20098;-82
2021/12/05 03:36:18;;;;;;;35.95;34.05;;;;;;;19.75;44.33;99560.25;4956659;28;20035;-82
2021/12/05 03:38:46;;;;;;;36.30;34.40;;;;;;;19.75;44.38;99565.75;4925576;29;20035;-81
2021/12/05 03:41:13;;;;;;;37.53;35.58;;;;;;;19.75;44.36;99567.69;4942071;29;20099;-81
2021/12/05 03:43:41;;;;;;;37.05;35.05;;;;;;;19.74;44.19;99560.59;4940821;28;20030;-82
2021/12/05 03:46:12;;;;;;;34.85;33.05;;;;;;;19.75;44.17;99567.69;4940347;29;20114;-82
2021/12/05 03:48:45;;;;;;;35.13;33.33;;;;;;;19.73;44.09;99561.72;4957256;29;20491;-83
2021/12/05 03:51:16;;;;;;;35.80;33.88;;;;;;;19.73;44.36;99559.81;4956410;29;20484;-81
2021/12/05 03:53:42;;;;;;;36.30;34.42;;;;;;;19.73;44.42;99559.00;4957097;28;20039;-82
2021/12/05 03:56:08;;;;;;;36.25;34.38;;;;;;;19.72;44.09;99565.63;4924897;29;20130;-81
2021/12/05 03:58:37;;;;;;;34.83;32.92;;;;;;;19.72;43.96;99566.41;4956825;28;20093;-81
2021/12/05 04:01:08;;;;;;;34.53;32.63;;;;;;;19.71;44.05;99567.56;4956283;28;20035;-81
2021/12/05 04:03:37;;;;;;;35.55;33.75;;;;;;;19.71;44.08;99566.75;4956120;29;20031;-81
2021/12/05 04:06:08;;;;;;;35.80;34.10;;;;;;;19.70;44.12;99557.72;4956405;28;20039;-82
2021/12/05 04:08:35;;;;;;;36.00;34.20;;;;;;;19.70;44.18;99563.19;4940455;29;20479;-81
2021/12/05 04:11:07;;;;;;;35.13;33.20;;;;;;;19.70;44.15;99565.94;4957817;28;20023;-82
2021/12/05 04:13:33;;;;;;;36.00;34.20;;;;;;;19.70;44.30;99560.44;4956723;29;20097;-81
2021/12/05 04:16:01;;;;;;;36.70;34.80;;;;;;;19.69;44.22;99556.13;4940556;29;20027;-82
2021/12/05 04:18:28;;;;;;;35.72;33.92;;;;;;;19.69;44.09;99558.06;4940489;29;20027;-83
2021/12/05 04:20:54;;;;;;;38.85;36.65;;;;;;;19.69;44.44;99558.06;4956102;29;20114;-83
2021/12/05 04:23:19;;;;;;;36.35;34.35;;;;;;;19.68;44.00;99560.00;4955789;28;20122;-81
2021/12/05 04:25:49;;;;;;;37.28;35.40;;;;;;;19.67;44.24;99559.19;4957404;29;20066;-82
2021/12/05 04:28:16;;;;;;;36.00;34.10;;;;;;;19.68;44.08;99565.50;4940402;29;20061;-81
2021/12/05 04:30:42;;;;;;;35.35;33.58;;;;;;;19.67;43.95;99561.91;4957384;28;20043;-83
2021/12/05 04:33:07;;;;;;;35.22;33.33;;;;;;;19.66;43.72;99559.50;4955946;28;20098;-81
2021/12/05 04:35:33;;;;;;;36.05;34.15;;;;;;;19.66;44.19;99563.03;4939896;29;20031;-81
2021/12/05 04:37:59;;;;;;;35.67;33.88;;;;;;;19.66;44.03;99562.25;4957176;28;20122;-81
2021/12/05 04:40:24;;;;;;;36.10;34.15;;;;;;;19.66;44.18;99562.25;4939905;29;20082;-81
2021/12/05 04:42:50;;;;;;;36.95;34.95;;;;;;;19.65;44.21;99564.19;4939649;29;20031;-81
2021/12/05 04:45:20;;;;;;;34.85;33.05;;;;;;;19.65;44.03;99571.56;4956169;28;20086;-82
2021/12/05 04:47:46;;;;;;;36.67;34.78;;;;;;;19.65;43.91;99571.56;4955630;28;20082;-81
2021/12/05 04:50:12;;;;;;;34.95;33.15;;;;;;;19.64;44.04;99572.72;4939675;29;20420;-82
2021/12/05 04:52:38;;;;;;;35.80;33.60;;;;;;;19.64;43.93;99572.72;4955203;28;20051;-81
2021/12/05 04:55:07;;;;;;;35.50;33.78;;;;;;;19.63;44.00;99571.09;4955032;29;20046;-82
2021/12/05 04:57:33;;;;;;;35.22;33.45;;;;;;;19.63;43.88;99573.84;4955975;28;20043;-81
2021/12/05 04:59:59;;;;;;;35.72;33.92;;;;;;;19.63;43.86;99565.63;4939571;29;20531;-81
2021/12/05 05:02:24;;;;;;;36.22;34.42;;;;;;;19.62;43.93;99569.50;4939290;29;20399;-81
2021/12/05 05:04:50;;;;;;;36.58;34.63;;;;;;;19.62;44.03;99572.25;4939827;29;20118;-81
2021/12/05 05:07:26;;;;;;;36.83;34.80;;;;;;;19.61;43.62;99568.72;4956333;28;20070;-81
2021/12/05 05:10:04;;;;;;;36.83;34.75;;;;;;;19.61;43.99;99567.91;4940982;29;20059;-81
2021/12/05 05:12:29;;;;;;;;;;;;;;;19.58;44.02;99565.81;4955668;29;20065;-82
2021/12/05 05:14:55;;;;;;;36.38;34.35;;;;;;;19.57;44.43;99566.97;4955303;28;19953;-82
2021/12/05 05:17:21;;;;;;;35.38;33.40;;;;;;;19.57;44.06;99565.03;4955883;29;20503;-81
2021/12/05 05:19:54;;;;;;;35.88;34.03;;;;;;;19.56;43.79;99577.13;4939337;29;20035;-82
2021/12/05 05:44:15;;;;;;;35.00;33.28;;;;;;;19.53;43.87;99596.97;4940242;29;20528;-82
2021/12/05 05:46:38;;;;;;;34.35;32.55;;;;;;;19.53;43.92;99605.19;4955212;28;20046;-81
2021/12/05 05:49:17;;;;;;;35.88;33.92;;;;;;;19.51;44.05;99601.16;4941293;29;20036;-83
2021/12/05 05:51:45;;;;;;;35.40;33.60;;;;;;;19.52;43.79;99602.75;4955254;28;20125;-82
2021/12/05 05:54:11;;;;;;;;;;;;;;;19.50;43.87;99600.34;4939547;29;20126;-81
2021/12/05 05:56:39;;;;;;;35.00;33.22;;;;;;;19.51;44.09;99603.91;4954440;29;19957;-82
2021/12/05 05:59:12;;;;;;;36.53;34.63;;;;;;;19.51;43.82;99606.66;4938637;29;20062;-81
2021/12/05 06:01:58;;;;;;;35.15;33.45;;;;;;;19.50;43.89;99600.34;4939675;29;20031;-81
2021/12/05 06:04:23;;;;;;;35.85;34.15;;;;;;;19.50;44.19;99596.81;4954785;29;20027;-81
2021/12/05 06:06:48;;;;;;;36.22;34.40;;;;;;;19.49;44.04;99606.97;4938412;28;20085;-83
2021/12/05 06:09:14;;;;;;;35.67;33.92;;;;;;;19.49;43.96;99604.22;4938454;29;20042;-81
2021/12/05 06:11:39;;;;;;;35.47;33.75;;;;;;;19.49;44.00;99606.97;4938103;29;20031;-81
2021/12/05 06:14:06;;;;;;;37.42;35.53;;;;;;;19.49;43.82;99603.44;4938324;29;20142;-81
2021/12/05 06:16:36;;;;;;;36.65;34.85;;;;;;;19.51;44.12;99609.38;4954392;28;20035;-81
2021/12/05 06:19:04;;;;;;;37.67;35.67;;;;;;;19.49;43.64;99606.16;4954544;29;20179;-82
2021/12/05 06:21:29;;;;;;;35.65;33.92;;;;;;;19.48;43.76;99605.38;4954852;28;20384;-81
2021/12/05 06:23:54;;;;;;;36.10;34.33;;;;;;;19.49;43.69;99614.38;4938119;29;20031;-82
2021/12/05 06:26:21;;;;;;;36.42;34.33;;;;;;;19.48;43.59;99618.22;4953669;28;20121;-81
2021/12/05 06:29:01;;;;;;;35.70;33.90;;;;;;;19.48;43.80;99621.81;4938610;29;20046;-81
2021/12/05 06:39:26;;;;;;;35.15;33.35;;;;;;;19.47;43.74;99628.41;4940572;29;20054;-81
2021/12/05 06:42:02;;;;;;;35.00;33.30;;;;;;;19.45;43.65;99630.66;4940631;29;20073;-83
2021/12/05 06:47:13;;;;;;;34.70;32.95;;;;;;;19.44;43.64;99640.81;4941293;29;20194;-81
2021/12/05 06:49:42;;;;;;;35.42;33.72;;;;;;;19.44;43.69;99651.75;4954617;28;20038;-82
2021/12/05 06:52:08;;;;;;;37.45;35.50;;;;;;;19.43;43.47;99647.44;4937843;29;20456;-82
2021/12/05 06:54:38;;;;;;;35.88;34.17;;;;;;;19.43;43.77;99652.91;4937557;29;20384;-82
2021/12/05 06:57:05;;;;;;;36.20;34.30;;;;;;;19.44;43.49;99667.41;4954261;29;20076;-82
2021/12/05 06:59:31;;;;;;;35.15;33.45;;;;;;;19.43;43.59;99657.59;4953796;29;20071;-82
2021/12/05 07:01:59;;;;;;;37.30;35.45;;;;;;;19.43;43.85;99672.06;4954162;28;20031;-83
2021/12/05 07:06:55;;;;;;;35.50;33.78;;;;;;;19.42;43.90;99686.09;4955092;29;20283;-83
2021/12/05 07:09:22;;;;;;;35.10;33.40;;;;;;;19.41;43.59;99679.81;4937893;29;20122;-83
2021/12/05 07:12:03;;;;;;;35.40;33.50;;;;;;;19.41;43.80;99681.75;4938048;29;20035;-82
2021/12/05 07:25:34;;;;;;;35.00;33.17;;;;;;;19.38;43.90;99698.84;4959031;29;20071;-82
2021/12/05 07:44:08;;;;;;;35.10;33.30;;;;;;;19.36;44.13;99726.53;4942300;29;20043;-81
2021/12/05 07:46:34;;;;;;;35.50;33.75;;;;;;;19.36;43.95;99728.47;4941012;29;20034;-81
2021/12/05 07:48:59;;;;;;;35.88;34.10;;;;;;;19.37;44.53;99728.13;4956918;28;20415;-82
2021/12/05 07:51:27;;;;;;;36.45;34.63;;;;;;;19.38;44.34;99732.50;4941255;28;20047;-81
2021/12/05 07:54:39;;;;;;;35.03;33.33;;;;;;;19.39;44.50;99727.81;4941139;29;20043;-83
2021/12/05 07:57:01;;;;;;;36.15;34.35;;;;;;;19.41;44.26;99736.53;4956535;28;20134;-81
2021/12/05 08:16:15;;;;;;;36.33;34.45;;;;;;;19.55;44.76;99748.06;4943535;29;20050;-81
2021/12/05 08:18:41;;;;;;;36.25;34.53;;;;;;;19.59;44.77;99748.22;4941446;29;20519;-79
2021/12/05 08:21:11;;;;;;;37.63;35.72;;;;;;;19.62;44.80;99758.53;4957239;28;20110;-81
2021/12/05 08:23:37;;;;;;;35.95;34.15;;;;;;;19.63;44.85;99755.47;4957689;29;20078;-80
2021/12/05 08:26:09;;;;;;;37.40;35.53;;;;;;;19.66;44.82;99754.81;4955804;28;20039;-82
2021/12/05 08:31:16;;;;;;;36.85;34.95;;;;;;;19.71;44.88;99762.09;4956636;28;20070;-79
2021/12/05 08:36:39;;;;;;;44.83;40.08;;;;;;;19.77;45.31;99770.91;4939912;29;20054;-81
2021/12/05 08:39:31;;;;;;;42.53;38.08;;;;;;;19.78;45.63;99767.03;4956427;29;20043;-80
2021/12/05 10:11:57;;;;;;;37.42;35.53;;;;;;;20.02;44.08;99909.81;4956620;28;20082;-79
2021/12/05 10:14:42;;;;;;;38.28;36.38;;;;;;;20.03;44.00;99914.19;4941423;29;20440;-80
2021/12/05 10:38:48;;;;;;;40.30;38.30;;;;;;;20.06;43.77;99926.41;4955400;29;20126;-80
2021/12/05 10:41:46;;;;;;;39.40;37.30;;;;;;;20.05;43.63;99925.59;4955277;29;20082;-80
2021/12/05 10:44:11;;;;;;;38.65;36.30;;;;;;;20.06;43.56;99934.66;4955041;29;20086;-90
2021/12/05 10:46:39;;;;;;;38.88;36.97;;;;;;;20.06;43.56;99940.94;4955375;28;20043;-79
2021/12/05 10:49:11;;;;;;;38.35;36.45;;;;;;;20.06;43.49;99943.66;4954759;28;20039;-79
2021/12/05 10:51:49;;;;;;;39.22;37.33;;;;;;;20.07;43.22;99937.03;4955309;28;20070;-80
2021/12/05 10:54:17;;;;;;;39.80;37.80;;;;;;;20.07;43.05;99944.47;4957661;28;20046;-80
2021/12/05 10:56:50;;;;;;;38.47;36.58;;;;;;;20.07;43.30;99944.47;4958567;28;20039;-79
2021/12/05 10:59:19;;;;;;;41.55;39.42;;;;;;;20.07;43.06;99930.75;4958718;29;20479;-80
2021/12/05 11:01:55;;;;;;;40.05;37.85;;;;;;;20.08;43.31;99946.91;4957672;28;20458;-80
2021/12/05 11:04:38;;;;;;;39.65;37.65;;;;;;;20.08;42.92;99938.66;4958413;29;20094;-80
2021/12/05 11:07:12;;;;;;;39.35;37.45;;;;;;;20.09;43.03;99939.47;4959671;29;20368;-79
2021/12/05 11:09:43;;;;;;;39.05;37.15;;;;;;;20.09;42.91;99936.72;4941283;29;20032;-80
2021/12/05 11:12:14;;;;;;;40.45;38.45;;;;;;;20.09;43.14;99943.00;4957759;29;20100;-79
2021/12/05 11:15:02;;;;;;;39.30;37.35;;;;;;;20.10;42.92;99939.13;4957562;29;20034;-79
2021/12/05 11:17:30;;;;;;;39.33;37.33;;;;;;;20.10;43.00;99946.56;4957377;29;20027;-80
2021/12/05 11:20:09;;;;;;;37.38;35.47;;;;;;;20.09;42.74;99945.75;4941449;29;20035;-79
2021/12/05 11:22:40;;;;;;;38.83;36.88;;;;;;;20.11;42.99;99956.41;4941575;29;20031;-79
2021/12/05 11:25:19;;;;;;;39.17;37.17;;;;;;;20.10;42.70;99955.56;4957286;29;20356;-79
2021/12/05 11:27:52;;;;;;;38.72;36.83;;;;;;;20.12;42.81;99962.69;4958623;29;20050;-79
2021/12/05 11:30:18;;;;;;;41.45;39.45;;;;;;;20.11;42.41;99959.16;4958172;29;20486;-79
2021/12/05 11:32:53;;;;;;;39.80;37.60;;;;;;;20.12;42.50;99963.50;4957443;28;20039;-79
2021/12/05 11:35:39;;;;;;;41.35;39.35;;;;;;;20.11;42.65;99967.38;4958542;29;20079;-79
2021/12/05 11:38:13;;;;;;;39.08;37.17;;;;;;;20.12;42.67;99973.66;4958754;29;20031;-80
2021/12/05 11:40:58;;;;;;;39.72;37.72;;;;;;;20.12;42.93;99971.72;4957980;28;20031;-80
2021/12/05 11:43:30;;;;;;;40.22;38.22;;;;;;;20.12;42.40;99976.41;4957267;29;20042;-80
2021/12/05 11:46:23;;;;;;;39.35;37.25;;;;;;;20.13;42.55;99987.03;4941403;29;20360;-79
2021/12/05 11:48:53;;;;;;;39.40;37.50;;;;;;;20.13;42.67;99988.97;4957100;29;20035;-79
2021/12/05 11:51:28;;;;;;;40.47;38.38;;;;;;;20.12;42.37;99990.91;4956703;29;20051;-80
2021/12/05 11:54:08;;;;;;;39.75;37.83;;;;;;;20.14;42.42;99993.34;4957267;29;20066;-80
2021/12/05 11:56:33;;;;;;;40.72;38.72;;;;;;;20.14;42.60;99993.34;4956885;29;20096;-79
2021/12/05 11:59:33;;;;;;;41.22;39.22;;;;;;;20.13;42.31;99987.03;4957774;28;20027;-79
2021/12/05 12:02:24;;;;;;;39.83;37.83;;;;;;;20.13;42.41;99981.53;4955446;28;20047;-79
2021/12/05 12:05:14;;;;;;;39.15;37.25;;;;;;;20.14;42.42;99990.59;4956449;28;20468;-79
2021/12/05 12:07:44;;;;;;;39.05;37.15;;;;;;;20.13;42.04;99989.75;4958553;29;20027;-80
2021/12/05 12:10:34;;;;;;;39.67;37.70;;;;;;;20.14;42.12;99996.88;4957716;29;20058;-79
2021/12/05 12:13:13;;;;;;;39.72;37.75;;;;;;;20.14;42.32;100002.34;4941246;29;20122;-79
2021/12/05 12:15:44;;;;;;;39.45;37.55;;;;;;;20.15;42.21;99994.94;4956775;29;20027;-80
2021/12/05 12:18:25;;;;;;;39.15;37.25;;;;;;;20.15;42.19;100009.44;4941073;29;20039;-80
2021/12/05 12:20:52;;;;;;;38.92;37.03;;;;;;;20.15;42.38;100006.69;4957471;29;20093;-79
2021/12/05 12:23:18;;;;;;;39.35;37.35;;;;;;;20.16;42.29;100007.50;4957955;28;20040;-80
2021/12/05 12:25:47;;;;;;;38.95;37.05;;;;;;;20.17;42.32;100009.13;4958770;28;20046;-83
2021/12/05 12:28:13;;;;;;;38.55;36.50;;;;;;;20.17;42.03;100009.13;4957333;29;20106;-81
2021/12/05 12:30:41;;;;;;;38.97;36.97;;;;;;;20.17;42.20;100018.16;4957591;28;20038;-80
2021/12/05 12:33:17;;;;;;;38.80;36.97;;;;;;;20.16;42.01;100013.81;4957206;29;20094;-79
2021/12/05 12:35:45;;;;;;;41.28;39.28;;;;;;;20.18;42.02;100025.25;4957290;29;20483;-79
2021/12/05 12:38:19;;;;;;;38.17;36.37;;;;;;;20.19;42.06;100023.31;4939963;29;20031;-79
2021/12/05 12:40:54;;;;;;;39.85;37.95;;;;;;;20.18;41.95;100025.25;4955765;28;20027;-80
2021/12/05 12:43:34;;;;;;;39.65;37.72;;;;;;;20.19;42.06;100028.81;4957374;29;20028;-79
2021/12/05 12:46:32;;;;;;;38.47;36.58;;;;;;;20.18;41.80;100032.66;4957285;28;20051;-79
2021/12/05 12:49:18;;;;;;;;;;;;;;;20.16;41.94;100030.25;4957421;29;20102;-84
2021/12/05 12:51:49;;;;;;;37.30;35.50;;;;;;;20.16;42.02;100034.91;4951433;28;20425;-80
2021/12/05 12:54:37;;;;;;;37.72;35.92;;;;;;;20.17;41.68;100033.81;4956649;28;20047;-80
2021/12/05 12:57:03;;;;;;;38.25;36.25;;;;;;;20.17;41.82;100031.88;4939972;29;20138;-79
2021/12/05 12:59:31;;;;;;;38.95;36.88;;;;;;;20.18;42.21;100033.47;4957031;29;20134;-82
2021/12/05 13:02:56;;;;;;;39.53;37.53;;;;;;;20.19;41.82;100040.56;4939416;29;20039;-79
2021/12/05 13:10:44;;;;;;;39.22;37.22;;;;;;;20.20;42.05;100066.84;4950659;29;20553;-80
2021/12/05 13:13:23;;;;;;;39.15;37.25;;;;;;;20.21;41.99;100054.78;4955437;29;20471;-80
2021/12/05 13:16:00;;;;;;;39.90;38.00;;;;;;;20.22;41.98;100058.31;4956623;29;20030;-80
2021/12/05 13:18:35;;;;;;;40.67;38.67;;;;;;;20.23;41.69;100070.88;4956866;28;20122;-80
2021/12/05 13:21:08;;;;;;;39.85;37.95;;;;;;;20.23;41.89;100073.63;4955729;29;20090;-81
2021/12/05 13:23:37;;;;;;;40.17;38.17;;;;;;;20.22;41.75;100078.31;4956899;29;20099;-79
2021/12/05 13:26:33;;;;;;;39.15;37.25;;;;;;;20.23;41.66;100079.91;4955275;28;20035;-79
2021/12/05 13:29:22;;;;;;;38.67;36.88;;;;;;;20.23;41.43;100090.88;4956267;28;20456;-80
2021/12/05 13:32:04;;;;;;;40.67;38.70;;;;;;;20.22;41.63;100089.28;4956124;29;20087;-82
2021/12/05 13:34:34;;;;;;;40.53;38.42;;;;;;;20.23;41.50;100087.34;4956019;29;20038;-79
2021/12/05 13:37:22;;;;;;;39.75;37.85;;;;;;;20.22;41.43;100100.25;4956354;29;20365;-80
2021/12/05 13:39:55;;;;;;;38.90;37.05;;;;;;;20.22;41.50;100102.19;4956092;29;20101;-79
2021/12/05 13:42:37;;;;;;;40.75;38.75;;;;;;;20.22;41.33;100097.50;4956484;29;20034;-79
2021/12/05 13:45:16;;;;;;;40.05;38.05;;;;;;;20.22;41.43;100097.50;4956444;29;20094;-82
2021/12/05 13:47:50;;;;;;;40.63;38.63;;;;;;;20.21;41.50;100098.66;4954806;28;20074;-78
2021/12/05 13:50:22;;;;;;;39.83;37.92;;;;;;;20.22;41.64;100099.44;4955572;29;20488;-80
2021/12/05 13:53:15;;;;;;;40.20;38.22;;;;;;;20.22;41.46;100105.75;4954427;28;20051;-77
2021/12/05 13:55:56;;;;;;;41.00;38.90;;;;;;;20.22;41.70;100099.44;4955012;29;20110;-79
2021/12/05 13:58:44;;;;;;;39.75;37.85;;;;;;;20.21;41.60;100104.13;4956049;29;20464;-78
2021/12/05 14:01:24;;;;;;;38.65;36.70;;;;;;;20.22;41.52;100104.94;4955450;29;20346;-79
2021/12/05 14:03:55;;;;;;;39.10;37.20;;;;;;;20.22;41.51;100107.69;4954412;29;20027;-79
2021/12/05 14:06:25;;;;;;;41.20;39.20;;;;;;;20.22;41.20;100116.72;4955609;28;20106;-79
2021/12/05 14:08:52;;;;;;;40.20;38.30;;;;;;;20.22;41.40;100122.19;4954111;29;20030;-79
2021/12/05 14:11:18;;;;;;;40.08;38.00;;;;;;;20.24;41.53;100124.63;4954135;28;20038;-79
2021/12/05 14:13:43;;;;;;;39.88;37.97;;;;;;;20.24;41.18;100130.09;4954257;29;20416;-78
2021/12/05 14:16:11;;;;;;;40.03;38.13;;;;;;;20.23;41.60;100134.75;4938703;29;20376;-79
2021/12/05 14:18:36;;;;;;;41.15;39.10;;;;;;;20.26;41.57;100136.06;4938095;29;20050;-78
2021/12/05 14:21:18;;;;;;;41.35;39.33;;;;;;;20.25;41.64;100143.47;4938872;29;20035;-79
2021/12/05 14:23:51;;;;;;;40.72;38.72;;;;;;;20.26;41.49;100158.81;4955042;29;20090;-79
2021/12/05 14:26:19;;;;;;;42.88;40.78;;;;;;;20.27;41.68;100154.94;4954795;29;20031;-79
2021/12/05 14:28:56;;;;;;;40.25;38.35;;;;;;;20.27;41.57;100165.09;4956468;28;20118;-79
2021/12/05 14:31:32;;;;;;;41.90;39.80;;;;;;;20.28;41.50;100167.50;4961391;29;20027;-79
2021/12/05 14:33:58;;;;;;;39.95;38.05;;;;;;;20.28;41.53;100170.25;4944074;29;20090;-81
2021/12/05 14:36:31;;;;;;;40.55;38.55;;;;;;;20.28;41.31;100173.00;4961621;28;20512;-78
2021/12/05 14:39:07;;;;;;;40.25;38.33;;;;;;;20.29;41.35;100179.31;4945152;28;20347;-80
2021/12/05 14:41:33;;;;;;;40.63;38.53;;;;;;;20.29;41.61;100182.06;4961020;29;20031;-79
2021/12/05 14:43:58;;;;;;;41.15;39.15;;;;;;;20.29;41.48;100185.59;4960365;28;20379;-78
2021/12/05 14:46:25;;;;;;;40.67;38.67;;;;;;;20.30;41.85;100184.47;4944311;29;20371;-79
2021/12/05 14:48:56;;;;;;;39.95;37.95;;;;;;;20.30;41.42;100189.16;4960863;29;20089;-80
2021/12/05 14:51:39;;;;;;;41.30;39.20;;;;;;;20.29;41.51;100193.03;4960231;28;20519;-80
2021/12/05 14:54:05;;;;;;;40.95;38.95;;;;;;;20.29;41.21;100207.53;4961189;29;20046;-84
2021/12/05 14:56:35;;;;;;;43.42;41.08;;;;;;;20.28;41.40;100211.41;4944972;29;20043;-81
2021/12/05 14:59:05;;;;;;;42.13;39.88;;;;;;;20.28;41.38;100216.88;4961068;28;20034;-82
2021/12/05 15:01:30;;;;;;;41.70;39.70;;;;;;;20.27;41.56;100209.00;4961342;28;20031;-79
2021/12/05 15:03:56;;;;;;;41.67;39.67;;;;;;;20.27;41.81;100218.03;4944900;29;20037;-78
2021/12/05 15:06:35;;;;;;;40.90;38.85;;;;;;;20.27;41.41;100222.69;4944514;28;20383;-80
2021/12/05 15:09:05;;;;;;;40.05;38.15;;;;;;;20.27;41.61;100234.47;4961694;28;20523;-78
2021/12/05 15:11:31;;;;;;;41.92;39.88;;;;;;;20.27;41.45;100239.97;4959944;28;20031;-83
2021/12/05 15:14:08;;;;;;;41.42;39.42;;;;;;;20.27;41.61;100239.16;4960153;29;20455;-81
2021/12/05 15:16:33;;;;;;;42.92;40.72;;;;;;;20.27;41.60;100250.13;4943815;29;20071;-82
2021/12/05 15:18:59;;;;;;;42.10;40.00;;;;;;;20.28;41.62;100265.44;4960051;29;20069;-82
2021/12/05 15:21:27;;;;;;;42.75;40.75;;;;;;;20.30;41.96;100268.69;4960365;28;20066;-81
2021/12/05 15:23:52;;;;;;;41.63;39.63;;;;;;;20.31;41.92;100271.13;4959880;28;20035;-84
2021/12/05 15:26:18;;;;;;;42.00;39.90;;;;;;;20.33;41.46;100270.78;4944221;29;20042;-80
2021/12/05 15:28:43;;;;;;;42.75;40.55;;;;;;;20.34;41.63;100275.16;4959997;28;20395;-81
2021/12/05 15:31:10;;;;;;;42.20;40.13;;;;;;;20.35;41.48;100273.22;4943984;29;20027;-81
2021/12/05 15:33:37;;;;;;;42.90;40.80;;;;;;;20.35;41.48;100284.97;4944150;29;20039;-81
2021/12/05 15:36:03;;;;;;;42.38;40.28;;;;;;;20.36;41.69;100292.09;4944211;29;20066;-79
2021/12/05 15:38:31;;;;;;;42.28;40.22;;;;;;;20.38;41.46;100300.00;4960686;28;20039;-79
2021/12/05 15:41:09;;;;;;;41.43;39.43;;;;;;;20.38;41.38;100305.47;4956512;28;20086;-83
2021/12/05 15:43:37;;;;;;;41.53;39.42;;;;;;;20.39;41.18;100298.88;4940841;29;20103;-83
2021/12/05 15:46:11;;;;;;;41.42;39.33;;;;;;;20.40;41.50;100311.47;4940397;29;20105;-82
2021/12/05 15:48:45;;;;;;;42.38;40.25;;;;;;;20.42;41.69;100309.22;4941849;29;20039;-82
2021/12/05 15:51:11;;;;;;;41.67;39.60;;;;;;;20.44;41.98;100317.94;4941376;29;20038;-84
2021/12/05 15:53:47;;;;;;;41.90;39.70;;;;;;;20.45;41.65;100325.03;4958239;28;20051;-83
2021/12/05 15:56:28;;;;;;;;;;;;;;;;;;;;;
2021/12/05 15:59:02;;;;;;;42.10;40.10;;;;;;;20.46;41.49;100329.38;4958786;29;20095;-84
2021/12/05 16:01:41;;;;;;;41.08;39.08;;;;;;;20.45;41.21;100339.53;4940815;29;20126;-84
2021/12/05 16:04:30;;;;;;;41.40;39.40;;;;;;;20.45;40.89;100338.75;4940449;29;20027;-82
2021/12/05 16:07:11;;;;;;;;;;;;;;;;;;;;;
2021/12/05 16:09:44;;;;;;;39.80;37.88;;;;;;;20.42;41.13;100362.13;4957126;29;20270;-82
2021/12/05 16:12:18;;;;;;;40.80;38.80;;;;;;;20.41;40.76;100360.53;4940597;29;20031;-82
2021/12/05 16:14:49;;;;;;;41.50;39.35;;;;;;;20.40;40.57;100358.09;4940615;29;20042;-81
2021/12/05 16:17:24;;;;;;;42.88;40.67;;;;;;;20.41;41.04;100356.97;4940408;29;20027;-83
2021/12/05 16:20:28;;;;;;;42.65;40.55;;;;;;;20.41;40.78;100362.44;4956290;29;20555;-86
2021/12/05 16:22:59;;;;;;;41.92;39.92;;;;;;;20.41;41.05;100373.41;4956376;29;20047;-84
2021/12/05 16:25:25;;;;;;;42.47;40.22;;;;;;;20.40;40.99;100367.13;4956642;28;20082;-85
2021/12/05 16:27:54;;;;;;;43.10;40.80;;;;;;;20.42;41.14;100372.31;4940434;29;20031;-85
2021/12/05 16:30:25;;;;;;;42.45;40.35;;;;;;;20.43;40.90;100379.41;4940546;29;20037;-86
2021/12/05 16:32:52;;;;;;;41.67;39.58;;;;;;;20.43;41.22;100380.22;4957405;29;20038;-84
2021/12/05 16:35:32;;;;;;;41.75;39.65;;;;;;;20.45;41.01;100388.13;4957460;28;20087;-84
2021/12/05 16:37:58;;;;;;;42.00;39.75;;;;;;;20.45;41.33;100394.41;4956384;29;20035;-83
2021/12/05 16:40:24;;;;;;;41.42;38.92;;;;;;;20.45;41.15;100396.34;4957425;29;20050;-84
2021/12/05 16:43:09;;;;;;;41.80;39.55;;;;;;;20.46;41.63;100396.06;4956513;28;20055;-84
2021/12/05 16:45:38;;;;;;;41.28;39.08;;;;;;;20.46;41.60;100404.28;4955540;29;20035;-84
2021/12/05 16:48:04;;;;;;;42.00;39.50;;;;;;;20.47;41.14;100411.38;4957212;28;20039;-86
2021/12/05 16:50:31;;;;;;;42.05;39.92;;;;;;;20.47;41.21;100405.88;4940016;29;20416;-84
2021/12/05 16:52:56;;;;;;;43.17;40.88;;;;;;;20.47;41.60;100418.81;4938842;29;20066;-84
2021/12/05 16:55:27;;;;;;;43.28;40.95;;;;;;;20.49;41.34;100414.63;4956876;28;20035;-84
2021/12/05 16:58:02;;;;;;;43.47;41.28;;;;;;;20.49;41.51;100419.31;4957085;29;20034;-84
2021/12/05 17:00:30;;;;;;;42.95;40.75;;;;;;;20.48;41.66;100415.72;4940615;29;20146;-83
2021/12/05 17:03:02;;;;;;;43.55;41.05;;;;;;;20.50;41.39;100420.91;4957179;28;20093;-84
2021/12/05 17:05:40;;;;;;;42.38;39.88;;;;;;;20.50;41.95;100429.13;4948314;29;20035;-84
2021/12/05 17:08:13;;;;;;;42.83;40.53;;;;;;;20.48;41.90;100425.91;4973758;28;20031;-84
2021/12/05 17:10:56;;;;;;;42.85;40.75;;;;;;;20.49;41.40;100435.75;4955107;29;20037;-86
2021/12/05 17:13:38;;;;;;;44.22;41.72;;;;;;;20.49;41.82;100438.50;4960503;29;20035;-83
2021/12/05 17:16:11;;;;;;;43.28;41.05;;;;;;;20.49;41.51;100436.56;4957628;29;20031;-84